sensor_id;sensor_type;location;lat;lon;timestamp;P1;durP1;ratioP1;P2;durP2;ratioP2
65691;SDS011;52411;52.716;6.696;2024-01-15T00:01:54;11.77;;;2.03;;
65691;SDS011;52411;52.716;6.696;2024-01-15T00:04:19;11.90;;;2.17;;
65691;SDS011;52411;52.716;6.696;2024-01-15T00:06:45;14.07;;;2.25;;
65691;SDS011;52411;52.716;6.696;2024-01-15T00:09:10;10.95;;;2.33;;
65691;SDS011;52411;52.716;6.696;2024-01-15T00:11:36;13.35;;;2.63;;
65691;SDS011;52411;52.716;6.696;2024-01-15T00:14:02;11.23;;;2.00;;
65691;SDS011;52411;52.716;6.696;2024-01-15T00:16:28;13.40;;;2.08;;
65691;SDS011;52411;52.716;6.696;2024-01-15T00:18:53;8.82;;;1.98;;
65691;SDS011;52411;52.716;6.696;2024-01-15T00:21:19;14.10;;;2.03;;
65691;SDS011;52411;52.716;6.696;2024-01-15T00:23:45;9.00;;;2.10;;
65691;SDS011;52411;52.716;6.696;2024-01-15T00:26:11;14.80;;;2.33;;
65691;SDS011;52411;52.716;6.696;2024-01-15T00:28:37;9.18;;;1.88;;
65691;SDS011;52411;52.716;6.696;2024-01-15T00:31:03;13.73;;;2.38;;
65691;SDS011;52411;52.716;6.696;2024-01-15T00:33:29;11.73;;;2.13;;
65691;SDS011;52411;52.716;6.696;2024-01-15T00:35:55;13.70;;;2.42;;
65691;SDS011;52411;52.716;6.696;2024-01-15T00:38:20;20.73;;;3.20;;
65691;SDS011;52411;52.716;6.696;2024-01-15T00:40:46;13.18;;;1.77;;
65691;SDS011;52411;52.716;6.696;2024-01-15T00:43:12;8.73;;;2.17;;
65691;SDS011;52411;52.716;6.696;2024-01-15T00:45:37;11.15;;;1.90;;
65691;SDS011;52411;52.716;6.696;2024-01-15T00:48:03;14.52;;;1.83;;
65691;SDS011;52411;52.716;6.696;2024-01-15T00:50:29;17.85;;;2.70;;
65691;SDS011;52411;52.716;6.696;2024-01-15T00:52:55;9.35;;;1.50;;
65691;SDS011;52411;52.716;6.696;2024-01-15T00:55:20;10.13;;;1.95;;
65691;SDS011;52411;52.716;6.696;2024-01-15T00:57:46;12.75;;;2.10;;
65691;SDS011;52411;52.716;6.696;2024-01-15T01:00:12;14.48;;;2.40;;
65691;SDS011;52411;52.716;6.696;2024-01-15T01:02:37;11.52;;;1.77;;
65691;SDS011;52411;52.716;6.696;2024-01-15T01:05:03;10.43;;;1.85;;
65691;SDS011;52411;52.716;6.696;2024-01-15T01:07:29;7.13;;;2.38;;
65691;SDS011;52411;52.716;6.696;2024-01-15T01:09:55;8.88;;;2.13;;
65691;SDS011;52411;52.716;6.696;2024-01-15T01:12:20;6.10;;;1.80;;
65691;SDS011;52411;52.716;6.696;2024-01-15T01:14:46;17.52;;;2.17;;
65691;SDS011;52411;52.716;6.696;2024-01-15T01:17:11;12.90;;;2.08;;
65691;SDS011;52411;52.716;6.696;2024-01-15T01:19:37;13.73;;;2.22;;
65691;SDS011;52411;52.716;6.696;2024-01-15T01:22:03;12.85;;;2.35;;
65691;SDS011;52411;52.716;6.696;2024-01-15T01:24:28;8.65;;;1.92;;
65691;SDS011;52411;52.716;6.696;2024-01-15T01:26:54;9.18;;;2.03;;
65691;SDS011;52411;52.716;6.696;2024-01-15T01:29:20;12.27;;;1.75;;
65691;SDS011;52411;52.716;6.696;2024-01-15T01:31:45;10.68;;;2.03;;
65691;SDS011;52411;52.716;6.696;2024-01-15T01:34:13;11.10;;;2.10;;
65691;SDS011;52411;52.716;6.696;2024-01-15T01:36:39;10.07;;;1.95;;
65691;SDS011;52411;52.716;6.696;2024-01-15T01:39:05;12.07;;;2.00;;
65691;SDS011;52411;52.716;6.696;2024-01-15T01:41:31;13.43;;;1.90;;
65691;SDS011;52411;52.716;6.696;2024-01-15T01:43:56;12.45;;;2.38;;
65691;SDS011;52411;52.716;6.696;2024-01-15T01:46:22;14.95;;;2.13;;
65691;SDS011;52411;52.716;6.696;2024-01-15T01:48:48;7.35;;;1.75;;
65691;SDS011;52411;52.716;6.696;2024-01-15T01:51:14;6.55;;;1.30;;
65691;SDS011;52411;52.716;6.696;2024-01-15T01:53:40;9.35;;;1.50;;
65691;SDS011;52411;52.716;6.696;2024-01-15T01:56:06;8.00;;;1.77;;
65691;SDS011;52411;52.716;6.696;2024-01-15T01:58:32;11.48;;;1.90;;
65691;SDS011;52411;52.716;6.696;2024-01-15T02:00:58;7.28;;;1.35;;
65691;SDS011;52411;52.716;6.696;2024-01-15T02:03:25;5.78;;;1.63;;
65691;SDS011;52411;52.716;6.696;2024-01-15T02:05:52;9.23;;;2.00;;
65691;SDS011;52411;52.716;6.696;2024-01-15T02:08:18;8.65;;;1.70;;
65691;SDS011;52411;52.716;6.696;2024-01-15T02:10:44;10.38;;;2.03;;
65691;SDS011;52411;52.716;6.696;2024-01-15T02:13:10;9.02;;;1.70;;
65691;SDS011;52411;52.716;6.696;2024-01-15T02:15:35;10.15;;;2.40;;
65691;SDS011;52411;52.716;6.696;2024-01-15T02:18:02;8.73;;;1.95;;
65691;SDS011;52411;52.716;6.696;2024-01-15T02:20:29;13.65;;;2.00;;
65691;SDS011;52411;52.716;6.696;2024-01-15T02:23:11;5.35;;;1.40;;
65691;SDS011;52411;52.716;6.696;2024-01-15T02:25:42;5.50;;;1.48;;
65691;SDS011;52411;52.716;6.696;2024-01-15T02:28:12;5.82;;;1.15;;
65691;SDS011;52411;52.716;6.696;2024-01-15T02:30:39;8.35;;;1.40;;
65691;SDS011;52411;52.716;6.696;2024-01-15T02:33:07;6.13;;;1.20;;
65691;SDS011;52411;52.716;6.696;2024-01-15T02:35:34;3.92;;;1.30;;
65691;SDS011;52411;52.716;6.696;2024-01-15T02:38:03;7.47;;;1.73;;
65691;SDS011;52411;52.716;6.696;2024-01-15T02:40:29;5.38;;;1.88;;
65691;SDS011;52411;52.716;6.696;2024-01-15T02:42:55;5.32;;;1.50;;
65691;SDS011;52411;52.716;6.696;2024-01-15T02:45:21;6.18;;;1.23;;
65691;SDS011;52411;52.716;6.696;2024-01-15T02:47:47;5.40;;;1.40;;
65691;SDS011;52411;52.716;6.696;2024-01-15T02:50:13;6.50;;;1.10;;
65691;SDS011;52411;52.716;6.696;2024-01-15T02:52:39;7.57;;;1.20;;
65691;SDS011;52411;52.716;6.696;2024-01-15T02:55:04;4.70;;;1.10;;
65691;SDS011;52411;52.716;6.696;2024-01-15T02:57:30;7.07;;;1.33;;
65691;SDS011;52411;52.716;6.696;2024-01-15T02:59:56;3.63;;;1.00;;
65691;SDS011;52411;52.716;6.696;2024-01-15T03:02:21;4.70;;;1.02;;
65691;SDS011;52411;52.716;6.696;2024-01-15T03:04:47;7.22;;;1.30;;
65691;SDS011;52411;52.716;6.696;2024-01-15T03:07:12;7.18;;;1.15;;
65691;SDS011;52411;52.716;6.696;2024-01-15T03:09:38;4.72;;;1.10;;
65691;SDS011;52411;52.716;6.696;2024-01-15T03:12:04;3.10;;;1.05;;
65691;SDS011;52411;52.716;6.696;2024-01-15T03:14:30;8.75;;;1.25;;
65691;SDS011;52411;52.716;6.696;2024-01-15T03:16:55;7.93;;;1.33;;
65691;SDS011;52411;52.716;6.696;2024-01-15T03:19:21;8.77;;;1.30;;
65691;SDS011;52411;52.716;6.696;2024-01-15T03:21:46;3.50;;;1.10;;
65691;SDS011;52411;52.716;6.696;2024-01-15T03:24:12;6.53;;;1.27;;
65691;SDS011;52411;52.716;6.696;2024-01-15T03:26:38;4.43;;;1.15;;
65691;SDS011;52411;52.716;6.696;2024-01-15T03:29:03;6.07;;;1.35;;
65691;SDS011;52411;52.716;6.696;2024-01-15T03:31:29;5.10;;;1.63;;
65691;SDS011;52411;52.716;6.696;2024-01-15T03:33:55;4.93;;;1.10;;
65691;SDS011;52411;52.716;6.696;2024-01-15T03:36:20;6.47;;;1.90;;
65691;SDS011;52411;52.716;6.696;2024-01-15T03:38:46;5.15;;;1.40;;
65691;SDS011;52411;52.716;6.696;2024-01-15T03:41:11;6.47;;;1.77;;
65691;SDS011;52411;52.716;6.696;2024-01-15T03:43:37;5.88;;;1.15;;
65691;SDS011;52411;52.716;6.696;2024-01-15T03:46:03;6.85;;;1.60;;
65691;SDS011;52411;52.716;6.696;2024-01-15T03:48:29;4.90;;;1.13;;
65691;SDS011;52411;52.716;6.696;2024-01-15T03:50:55;6.60;;;1.33;;
65691;SDS011;52411;52.716;6.696;2024-01-15T03:53:21;4.90;;;1.30;;
65691;SDS011;52411;52.716;6.696;2024-01-15T03:55:46;7.80;;;1.52;;
65691;SDS011;52411;52.716;6.696;2024-01-15T03:58:12;16.10;;;1.65;;
65691;SDS011;52411;52.716;6.696;2024-01-15T04:00:39;11.10;;;2.28;;
65691;SDS011;52411;52.716;6.696;2024-01-15T04:03:05;8.50;;;1.88;;
65691;SDS011;52411;52.716;6.696;2024-01-15T04:05:31;11.13;;;2.13;;
65691;SDS011;52411;52.716;6.696;2024-01-15T04:07:56;9.18;;;1.75;;
65691;SDS011;52411;52.716;6.696;2024-01-15T04:10:22;11.27;;;1.90;;
65691;SDS011;52411;52.716;6.696;2024-01-15T04:12:47;11.32;;;1.60;;
65691;SDS011;52411;52.716;6.696;2024-01-15T04:15:13;15.75;;;2.13;;
65691;SDS011;52411;52.716;6.696;2024-01-15T04:17:39;10.73;;;1.60;;
65691;SDS011;52411;52.716;6.696;2024-01-15T04:20:04;14.35;;;2.30;;
65691;SDS011;52411;52.716;6.696;2024-01-15T04:22:31;8.18;;;1.90;;
65691;SDS011;52411;52.716;6.696;2024-01-15T04:24:58;8.77;;;1.48;;
65691;SDS011;52411;52.716;6.696;2024-01-15T04:27:24;10.93;;;2.20;;
65691;SDS011;52411;52.716;6.696;2024-01-15T04:29:49;14.13;;;1.63;;
65691;SDS011;52411;52.716;6.696;2024-01-15T04:32:15;7.82;;;1.48;;
65691;SDS011;52411;52.716;6.696;2024-01-15T04:34:40;10.10;;;1.88;;
65691;SDS011;52411;52.716;6.696;2024-01-15T04:37:06;8.88;;;2.05;;
65691;SDS011;52411;52.716;6.696;2024-01-15T04:39:31;15.02;;;2.42;;
65691;SDS011;52411;52.716;6.696;2024-01-15T04:41:57;13.73;;;2.08;;
65691;SDS011;52411;52.716;6.696;2024-01-15T04:44:22;12.77;;;1.80;;
65691;SDS011;52411;52.716;6.696;2024-01-15T04:46:48;12.30;;;1.80;;
65691;SDS011;52411;52.716;6.696;2024-01-15T04:49:13;8.95;;;1.77;;
65691;SDS011;52411;52.716;6.696;2024-01-15T04:51:39;9.82;;;1.80;;
65691;SDS011;52411;52.716;6.696;2024-01-15T04:54:05;12.02;;;1.70;;
65691;SDS011;52411;52.716;6.696;2024-01-15T04:56:30;11.68;;;1.90;;
65691;SDS011;52411;52.716;6.696;2024-01-15T04:58:56;10.48;;;1.70;;
65691;SDS011;52411;52.716;6.696;2024-01-15T05:01:21;12.45;;;2.22;;
65691;SDS011;52411;52.716;6.696;2024-01-15T05:03:47;15.15;;;2.45;;
65691;SDS011;52411;52.716;6.696;2024-01-15T05:06:12;11.60;;;2.03;;
65691;SDS011;52411;52.716;6.696;2024-01-15T05:08:38;10.15;;;2.22;;
65691;SDS011;52411;52.716;6.696;2024-01-15T05:11:03;11.05;;;1.75;;
65691;SDS011;52411;52.716;6.696;2024-01-15T05:13:29;7.93;;;2.08;;
65691;SDS011;52411;52.716;6.696;2024-01-15T05:15:54;10.10;;;2.00;;
65691;SDS011;52411;52.716;6.696;2024-01-15T05:18:20;9.63;;;1.83;;
65691;SDS011;52411;52.716;6.696;2024-01-15T05:20:45;10.63;;;2.03;;
65691;SDS011;52411;52.716;6.696;2024-01-15T05:23:11;10.60;;;2.17;;
65691;SDS011;52411;52.716;6.696;2024-01-15T05:25:37;16.55;;;2.20;;
65691;SDS011;52411;52.716;6.696;2024-01-15T05:28:02;13.00;;;2.22;;
65691;SDS011;52411;52.716;6.696;2024-01-15T05:30:28;9.05;;;1.90;;
65691;SDS011;52411;52.716;6.696;2024-01-15T05:32:53;8.73;;;1.63;;
65691;SDS011;52411;52.716;6.696;2024-01-15T05:35:19;7.28;;;1.77;;
65691;SDS011;52411;52.716;6.696;2024-01-15T05:37:45;8.70;;;1.60;;
65691;SDS011;52411;52.716;6.696;2024-01-15T05:40:11;8.50;;;1.98;;
65691;SDS011;52411;52.716;6.696;2024-01-15T05:42:38;11.20;;;1.92;;
65691;SDS011;52411;52.716;6.696;2024-01-15T05:45:04;8.02;;;2.10;;
65691;SDS011;52411;52.716;6.696;2024-01-15T05:47:30;7.82;;;1.40;;
65691;SDS011;52411;52.716;6.696;2024-01-15T05:49:56;7.70;;;1.58;;
65691;SDS011;52411;52.716;6.696;2024-01-15T05:52:22;7.72;;;1.73;;
65691;SDS011;52411;52.716;6.696;2024-01-15T05:54:48;10.48;;;2.08;;
65691;SDS011;52411;52.716;6.696;2024-01-15T05:57:14;5.20;;;1.50;;
65691;SDS011;52411;52.716;6.696;2024-01-15T05:59:40;8.30;;;1.90;;
65691;SDS011;52411;52.716;6.696;2024-01-15T06:02:06;8.05;;;1.95;;
65691;SDS011;52411;52.716;6.696;2024-01-15T06:04:31;9.77;;;2.20;;
65691;SDS011;52411;52.716;6.696;2024-01-15T06:06:57;10.15;;;2.10;;
65691;SDS011;52411;52.716;6.696;2024-01-15T06:09:22;10.15;;;1.88;;
65691;SDS011;52411;52.716;6.696;2024-01-15T06:11:48;8.98;;;1.85;;
65691;SDS011;52411;52.716;6.696;2024-01-15T06:14:14;9.95;;;1.70;;
65691;SDS011;52411;52.716;6.696;2024-01-15T06:16:39;15.05;;;2.72;;
65691;SDS011;52411;52.716;6.696;2024-01-15T06:19:05;10.63;;;1.80;;
65691;SDS011;52411;52.716;6.696;2024-01-15T06:21:30;9.35;;;1.77;;
65691;SDS011;52411;52.716;6.696;2024-01-15T06:23:56;7.93;;;1.60;;
65691;SDS011;52411;52.716;6.696;2024-01-15T06:26:22;8.45;;;1.85;;
65691;SDS011;52411;52.716;6.696;2024-01-15T06:28:48;14.68;;;2.05;;
65691;SDS011;52411;52.716;6.696;2024-01-15T06:31:13;8.38;;;1.60;;
65691;SDS011;52411;52.716;6.696;2024-01-15T06:33:39;7.03;;;1.80;;
65691;SDS011;52411;52.716;6.696;2024-01-15T06:36:05;9.02;;;1.70;;
65691;SDS011;52411;52.716;6.696;2024-01-15T06:38:31;11.07;;;1.60;;
65691;SDS011;52411;52.716;6.696;2024-01-15T06:40:56;9.30;;;1.95;;
65691;SDS011;52411;52.716;6.696;2024-01-15T06:43:22;8.13;;;1.38;;
65691;SDS011;52411;52.716;6.696;2024-01-15T06:45:48;6.65;;;1.80;;
65691;SDS011;52411;52.716;6.696;2024-01-15T06:48:13;5.30;;;1.20;;
65691;SDS011;52411;52.716;6.696;2024-01-15T06:50:41;10.05;;;1.52;;
65691;SDS011;52411;52.716;6.696;2024-01-15T06:53:07;6.97;;;1.38;;
65691;SDS011;52411;52.716;6.696;2024-01-15T06:55:32;2.55;;;1.08;;
65691;SDS011;52411;52.716;6.696;2024-01-15T06:57:58;7.15;;;1.58;;
65691;SDS011;52411;52.716;6.696;2024-01-15T07:00:24;5.70;;;1.50;;
65691;SDS011;52411;52.716;6.696;2024-01-15T07:02:49;9.38;;;1.40;;
65691;SDS011;52411;52.716;6.696;2024-01-15T07:05:15;6.50;;;1.52;;
65691;SDS011;52411;52.716;6.696;2024-01-15T07:07:40;8.88;;;1.67;;
65691;SDS011;52411;52.716;6.696;2024-01-15T07:10:06;11.93;;;1.80;;
65691;SDS011;52411;52.716;6.696;2024-01-15T07:12:32;5.78;;;1.55;;
65691;SDS011;52411;52.716;6.696;2024-01-15T07:14:58;4.75;;;1.27;;
65691;SDS011;52411;52.716;6.696;2024-01-15T07:17:24;12.82;;;1.73;;
65691;SDS011;52411;52.716;6.696;2024-01-15T07:19:49;4.82;;;1.58;;
65691;SDS011;52411;52.716;6.696;2024-01-15T07:22:15;5.80;;;1.58;;
65691;SDS011;52411;52.716;6.696;2024-01-15T07:24:42;5.70;;;1.60;;
65691;SDS011;52411;52.716;6.696;2024-01-15T07:27:08;10.93;;;1.92;;
65691;SDS011;52411;52.716;6.696;2024-01-15T07:29:34;9.57;;;1.75;;
65691;SDS011;52411;52.716;6.696;2024-01-15T07:32:02;3.78;;;1.70;;
65691;SDS011;52411;52.716;6.696;2024-01-15T07:34:28;6.38;;;1.75;;
65691;SDS011;52411;52.716;6.696;2024-01-15T07:36:54;6.47;;;1.63;;
65691;SDS011;52411;52.716;6.696;2024-01-15T07:39:19;5.88;;;1.70;;
65691;SDS011;52411;52.716;6.696;2024-01-15T07:41:45;9.02;;;1.80;;
65691;SDS011;52411;52.716;6.696;2024-01-15T07:44:10;8.90;;;2.00;;
65691;SDS011;52411;52.716;6.696;2024-01-15T07:46:36;8.60;;;1.88;;
65691;SDS011;52411;52.716;6.696;2024-01-15T07:49:01;9.93;;;1.50;;
65691;SDS011;52411;52.716;6.696;2024-01-15T07:51:28;4.22;;;1.40;;
65691;SDS011;52411;52.716;6.696;2024-01-15T07:53:54;5.68;;;1.85;;
65691;SDS011;52411;52.716;6.696;2024-01-15T07:56:23;5.63;;;1.83;;
65691;SDS011;52411;52.716;6.696;2024-01-15T07:58:48;5.20;;;1.50;;
65691;SDS011;52411;52.716;6.696;2024-01-15T08:01:14;9.90;;;2.33;;
65691;SDS011;52411;52.716;6.696;2024-01-15T08:03:40;13.88;;;1.70;;
65691;SDS011;52411;52.716;6.696;2024-01-15T08:06:05;5.75;;;1.63;;
65691;SDS011;52411;52.716;6.696;2024-01-15T08:08:31;4.90;;;1.42;;
65691;SDS011;52411;52.716;6.696;2024-01-15T08:10:56;5.80;;;1.60;;
65691;SDS011;52411;52.716;6.696;2024-01-15T08:13:22;10.50;;;2.10;;
65691;SDS011;52411;52.716;6.696;2024-01-15T08:15:48;9.05;;;2.03;;
65691;SDS011;52411;52.716;6.696;2024-01-15T08:18:13;9.02;;;2.22;;
65691;SDS011;52411;52.716;6.696;2024-01-15T08:20:39;9.70;;;1.75;;
65691;SDS011;52411;52.716;6.696;2024-01-15T08:23:04;11.18;;;2.05;;
65691;SDS011;52411;52.716;6.696;2024-01-15T08:25:30;6.60;;;1.70;;
65691;SDS011;52411;52.716;6.696;2024-01-15T08:27:56;8.45;;;2.03;;
65691;SDS011;52411;52.716;6.696;2024-01-15T08:30:22;16.55;;;2.42;;
65691;SDS011;52411;52.716;6.696;2024-01-15T08:32:52;5.72;;;1.98;;
65691;SDS011;52411;52.716;6.696;2024-01-15T08:35:21;10.73;;;2.08;;
65691;SDS011;52411;52.716;6.696;2024-01-15T08:37:57;9.98;;;2.42;;
65691;SDS011;52411;52.716;6.696;2024-01-15T08:40:23;3.95;;;2.22;;
65691;SDS011;52411;52.716;6.696;2024-01-15T08:42:49;9.23;;;1.80;;
65691;SDS011;52411;52.716;6.696;2024-01-15T08:45:14;8.40;;;2.75;;
65691;SDS011;52411;52.716;6.696;2024-01-15T08:47:40;6.78;;;1.90;;
65691;SDS011;52411;52.716;6.696;2024-01-15T08:50:06;8.82;;;2.00;;
65691;SDS011;52411;52.716;6.696;2024-01-15T08:52:35;9.65;;;1.67;;
65691;SDS011;52411;52.716;6.696;2024-01-15T08:55:01;7.45;;;1.80;;
65691;SDS011;52411;52.716;6.696;2024-01-15T08:57:26;9.90;;;1.90;;
65691;SDS011;52411;52.716;6.696;2024-01-15T08:59:52;8.60;;;1.83;;
65691;SDS011;52411;52.716;6.696;2024-01-15T09:02:19;9.02;;;2.30;;
65691;SDS011;52411;52.716;6.696;2024-01-15T09:04:45;8.75;;;1.90;;
65691;SDS011;52411;52.716;6.696;2024-01-15T09:07:11;10.55;;;2.40;;
65691;SDS011;52411;52.716;6.696;2024-01-15T09:09:36;8.88;;;2.25;;
65691;SDS011;52411;52.716;6.696;2024-01-15T09:12:02;11.90;;;1.80;;
65691;SDS011;52411;52.716;6.696;2024-01-15T09:14:27;8.57;;;2.10;;
65691;SDS011;52411;52.716;6.696;2024-01-15T09:16:54;7.80;;;2.20;;
65691;SDS011;52411;52.716;6.696;2024-01-15T09:19:19;14.18;;;2.42;;
65691;SDS011;52411;52.716;6.696;2024-01-15T09:21:45;6.28;;;1.45;;
65691;SDS011;52411;52.716;6.696;2024-01-15T09:24:10;12.77;;;2.25;;
65691;SDS011;52411;52.716;6.696;2024-01-15T09:26:36;7.30;;;1.60;;
65691;SDS011;52411;52.716;6.696;2024-01-15T09:29:01;7.82;;;1.95;;
65691;SDS011;52411;52.716;6.696;2024-01-15T09:31:28;8.10;;;1.90;;
65691;SDS011;52411;52.716;6.696;2024-01-15T09:33:53;5.60;;;1.90;;
65691;SDS011;52411;52.716;6.696;2024-01-15T09:36:21;7.13;;;2.33;;
65691;SDS011;52411;52.716;6.696;2024-01-15T09:38:47;12.02;;;1.80;;
65691;SDS011;52411;52.716;6.696;2024-01-15T09:41:13;10.02;;;1.67;;
65691;SDS011;52411;52.716;6.696;2024-01-15T09:43:40;7.20;;;1.65;;
65691;SDS011;52411;52.716;6.696;2024-01-15T09:46:05;4.95;;;1.52;;
65691;SDS011;52411;52.716;6.696;2024-01-15T09:48:31;9.55;;;1.80;;
65691;SDS011;52411;52.716;6.696;2024-01-15T09:50:59;5.55;;;1.75;;
65691;SDS011;52411;52.716;6.696;2024-01-15T09:53:26;8.57;;;1.80;;
65691;SDS011;52411;52.716;6.696;2024-01-15T09:55:52;7.38;;;1.83;;
65691;SDS011;52411;52.716;6.696;2024-01-15T09:58:18;8.68;;;1.58;;
65691;SDS011;52411;52.716;6.696;2024-01-15T10:00:44;13.10;;;1.80;;
65691;SDS011;52411;52.716;6.696;2024-01-15T10:03:10;11.13;;;1.92;;
65691;SDS011;52411;52.716;6.696;2024-01-15T10:05:36;9.70;;;2.10;;
65691;SDS011;52411;52.716;6.696;2024-01-15T10:08:03;15.02;;;1.85;;
65691;SDS011;52411;52.716;6.696;2024-01-15T10:10:29;9.27;;;1.95;;
65691;SDS011;52411;52.716;6.696;2024-01-15T10:12:55;14.98;;;2.30;;
65691;SDS011;52411;52.716;6.696;2024-01-15T10:15:23;6.65;;;1.58;;
65691;SDS011;52411;52.716;6.696;2024-01-15T10:17:51;5.80;;;1.30;;
65691;SDS011;52411;52.716;6.696;2024-01-15T10:20:17;9.23;;;1.88;;
65691;SDS011;52411;52.716;6.696;2024-01-15T10:22:42;7.40;;;1.85;;
65691;SDS011;52411;52.716;6.696;2024-01-15T10:25:11;7.18;;;1.50;;
65691;SDS011;52411;52.716;6.696;2024-01-15T10:27:38;4.65;;;1.35;;
65691;SDS011;52411;52.716;6.696;2024-01-15T10:30:04;6.50;;;1.42;;
65691;SDS011;52411;52.716;6.696;2024-01-15T10:32:31;7.15;;;1.40;;
65691;SDS011;52411;52.716;6.696;2024-01-15T10:34:56;4.35;;;1.38;;
65691;SDS011;52411;52.716;6.696;2024-01-15T10:37:23;6.45;;;1.58;;
65691;SDS011;52411;52.716;6.696;2024-01-15T10:39:49;3.80;;;1.20;;
65691;SDS011;52411;52.716;6.696;2024-01-15T10:42:15;4.05;;;1.38;;
65691;SDS011;52411;52.716;6.696;2024-01-15T10:44:42;6.32;;;1.75;;
65691;SDS011;52411;52.716;6.696;2024-01-15T10:47:08;2.38;;;1.20;;
65691;SDS011;52411;52.716;6.696;2024-01-15T10:49:34;3.15;;;1.30;;
65691;SDS011;52411;52.716;6.696;2024-01-15T10:52:00;3.85;;;1.23;;
65691;SDS011;52411;52.716;6.696;2024-01-15T10:54:26;4.03;;;1.30;;
65691;SDS011;52411;52.716;6.696;2024-01-15T10:56:52;4.35;;;1.13;;
65691;SDS011;52411;52.716;6.696;2024-01-15T10:59:20;5.43;;;1.52;;
65691;SDS011;52411;52.716;6.696;2024-01-15T11:01:47;2.83;;;1.10;;
65691;SDS011;52411;52.716;6.696;2024-01-15T11:04:14;8.55;;;1.83;;
65691;SDS011;52411;52.716;6.696;2024-01-15T11:06:45;5.47;;;1.17;;
65691;SDS011;52411;52.716;6.696;2024-01-15T11:09:12;3.97;;;1.30;;
65691;SDS011;52411;52.716;6.696;2024-01-15T11:11:42;5.07;;;1.55;;
65691;SDS011;52411;52.716;6.696;2024-01-15T11:14:09;4.47;;;1.10;;
65691;SDS011;52411;52.716;6.696;2024-01-15T11:16:54;6.28;;;1.40;;
65691;SDS011;52411;52.716;6.696;2024-01-15T11:19:21;4.22;;;1.17;;
65691;SDS011;52411;52.716;6.696;2024-01-15T11:21:47;4.50;;;1.05;;
65691;SDS011;52411;52.716;6.696;2024-01-15T11:24:32;4.97;;;1.17;;
65691;SDS011;52411;52.716;6.696;2024-01-15T11:27:00;4.95;;;1.20;;
65691;SDS011;52411;52.716;6.696;2024-01-15T11:29:29;2.78;;;1.38;;
65691;SDS011;52411;52.716;6.696;2024-01-15T11:31:58;1.95;;;0.95;;
65691;SDS011;52411;52.716;6.696;2024-01-15T11:37:25;1.77;;;0.90;;
65691;SDS011;52411;52.716;6.696;2024-01-15T11:39:52;2.42;;;1.08;;
65691;SDS011;52411;52.716;6.696;2024-01-15T11:42:26;3.30;;;1.17;;
65691;SDS011;52411;52.716;6.696;2024-01-15T11:44:52;1.95;;;1.00;;
65691;SDS011;52411;52.716;6.696;2024-01-15T11:47:26;3.08;;;1.20;;
65691;SDS011;52411;52.716;6.696;2024-01-15T11:50:02;2.97;;;1.00;;
65691;SDS011;52411;52.716;6.696;2024-01-15T11:52:38;2.95;;;1.10;;
65691;SDS011;52411;52.716;6.696;2024-01-15T11:55:10;3.75;;;1.15;;
65691;SDS011;52411;52.716;6.696;2024-01-15T11:57:41;4.05;;;1.33;;
65691;SDS011;52411;52.716;6.696;2024-01-15T12:00:10;5.40;;;1.55;;
65691;SDS011;52411;52.716;6.696;2024-01-15T12:02:37;3.35;;;1.10;;
65691;SDS011;52411;52.716;6.696;2024-01-15T12:05:07;2.03;;;1.00;;
65691;SDS011;52411;52.716;6.696;2024-01-15T12:07:33;4.63;;;1.20;;
65691;SDS011;52411;52.716;6.696;2024-01-15T12:09:59;2.67;;;1.30;;
65691;SDS011;52411;52.716;6.696;2024-01-15T12:12:47;5.15;;;1.30;;
65691;SDS011;52411;52.716;6.696;2024-01-15T12:15:22;5.20;;;1.20;;
65691;SDS011;52411;52.716;6.696;2024-01-15T12:17:47;2.92;;;1.20;;
65691;SDS011;52411;52.716;6.696;2024-01-15T12:20:13;3.78;;;1.25;;
65691;SDS011;52411;52.716;6.696;2024-01-15T12:22:40;5.72;;;1.60;;
65691;SDS011;52411;52.716;6.696;2024-01-15T12:25:06;5.90;;;1.50;;
65691;SDS011;52411;52.716;6.696;2024-01-15T12:27:32;8.25;;;1.60;;
65691;SDS011;52411;52.716;6.696;2024-01-15T12:29:58;3.45;;;1.77;;
65691;SDS011;52411;52.716;6.696;2024-01-15T12:32:24;4.57;;;1.27;;
65691;SDS011;52411;52.716;6.696;2024-01-15T12:34:50;4.38;;;1.08;;
65691;SDS011;52411;52.716;6.696;2024-01-15T12:37:18;1.85;;;1.05;;
65691;SDS011;52411;52.716;6.696;2024-01-15T12:39:47;1.33;;;0.82;;
65691;SDS011;52411;52.716;6.696;2024-01-15T12:42:16;2.25;;;1.05;;
65691;SDS011;52411;52.716;6.696;2024-01-15T12:44:42;2.15;;;0.98;;
65691;SDS011;52411;52.716;6.696;2024-01-15T12:47:09;2.15;;;0.90;;
65691;SDS011;52411;52.716;6.696;2024-01-15T12:49:38;3.35;;;0.98;;
65691;SDS011;52411;52.716;6.696;2024-01-15T12:54:35;2.08;;;1.00;;
65691;SDS011;52411;52.716;6.696;2024-01-15T12:57:01;5.05;;;1.20;;
65691;SDS011;52411;52.716;6.696;2024-01-15T12:59:29;3.97;;;0.82;;
65691;SDS011;52411;52.716;6.696;2024-01-15T13:01:54;3.83;;;1.00;;
65691;SDS011;52411;52.716;6.696;2024-01-15T13:04:21;6.38;;;1.27;;
65691;SDS011;52411;52.716;6.696;2024-01-15T13:06:47;5.07;;;1.38;;
65691;SDS011;52411;52.716;6.696;2024-01-15T13:09:14;5.85;;;0.93;;
65691;SDS011;52411;52.716;6.696;2024-01-15T13:11:40;2.65;;;1.17;;
65691;SDS011;52411;52.716;6.696;2024-01-15T13:14:05;1.83;;;0.93;;
65691;SDS011;52411;52.716;6.696;2024-01-15T13:16:31;4.57;;;1.40;;
65691;SDS011;52411;52.716;6.696;2024-01-15T13:18:57;4.72;;;1.40;;
65691;SDS011;52411;52.716;6.696;2024-01-15T13:21:23;3.58;;;1.20;;
65691;SDS011;52411;52.716;6.696;2024-01-15T13:23:49;5.13;;;1.10;;
65691;SDS011;52411;52.716;6.696;2024-01-15T13:26:15;2.75;;;1.05;;
65691;SDS011;52411;52.716;6.696;2024-01-15T13:28:43;7.55;;;1.40;;
65691;SDS011;52411;52.716;6.696;2024-01-15T13:31:08;5.90;;;1.80;;
65691;SDS011;52411;52.716;6.696;2024-01-15T13:33:34;6.07;;;2.30;;
65691;SDS011;52411;52.716;6.696;2024-01-15T13:36:00;3.95;;;1.15;;
65691;SDS011;52411;52.716;6.696;2024-01-15T13:38:25;5.45;;;1.20;;
65691;SDS011;52411;52.716;6.696;2024-01-15T13:40:52;2.67;;;1.00;;
65691;SDS011;52411;52.716;6.696;2024-01-15T13:43:20;4.43;;;1.30;;
65691;SDS011;52411;52.716;6.696;2024-01-15T13:45:46;4.05;;;1.38;;
65691;SDS011;52411;52.716;6.696;2024-01-15T13:48:11;3.30;;;1.15;;
65691;SDS011;52411;52.716;6.696;2024-01-15T13:50:37;5.60;;;1.17;;
65691;SDS011;52411;52.716;6.696;2024-01-15T13:53:03;6.57;;;1.42;;
65691;SDS011;52411;52.716;6.696;2024-01-15T13:55:29;2.65;;;1.13;;
65691;SDS011;52411;52.716;6.696;2024-01-15T13:57:55;4.10;;;1.33;;
65691;SDS011;52411;52.716;6.696;2024-01-15T14:00:20;5.30;;;1.52;;
65691;SDS011;52411;52.716;6.696;2024-01-15T14:02:47;4.75;;;1.20;;
65691;SDS011;52411;52.716;6.696;2024-01-15T14:05:13;5.32;;;1.25;;
65691;SDS011;52411;52.716;6.696;2024-01-15T14:07:39;8.23;;;1.80;;
65691;SDS011;52411;52.716;6.696;2024-01-15T14:10:05;7.63;;;1.90;;
65691;SDS011;52411;52.716;6.696;2024-01-15T14:12:33;8.40;;;1.83;;
65691;SDS011;52411;52.716;6.696;2024-01-15T14:14:59;6.05;;;1.50;;
65691;SDS011;52411;52.716;6.696;2024-01-15T14:17:26;6.45;;;1.30;;
65691;SDS011;52411;52.716;6.696;2024-01-15T14:19:52;4.22;;;1.50;;
65691;SDS011;52411;52.716;6.696;2024-01-15T14:22:17;4.95;;;1.50;;
65691;SDS011;52411;52.716;6.696;2024-01-15T14:24:43;6.00;;;1.40;;
65691;SDS011;52411;52.716;6.696;2024-01-15T14:27:08;10.55;;;2.58;;
65691;SDS011;52411;52.716;6.696;2024-01-15T14:29:34;8.45;;;1.88;;
65691;SDS011;52411;52.716;6.696;2024-01-15T14:32:00;7.82;;;2.00;;
65691;SDS011;52411;52.716;6.696;2024-01-15T14:34:26;12.05;;;2.38;;
65691;SDS011;52411;52.716;6.696;2024-01-15T14:36:52;9.25;;;2.38;;
65691;SDS011;52411;52.716;6.696;2024-01-15T14:39:21;7.93;;;1.85;;
65691;SDS011;52411;52.716;6.696;2024-01-15T14:41:47;8.43;;;2.70;;
65691;SDS011;52411;52.716;6.696;2024-01-15T14:44:13;6.65;;;1.95;;